Terminal Aerodrome Forecast
Issued by NWS Cleveland, OH

Home | Current Version | Previous Version | Text Only | Print | Product List | Glossary On
Versions: 1 2 3 4 5 6 7 8 9 10 11 12 13 14 15 16 17 18 19 20 21 22 23 24 25 26
000
FTUS41 KCLE 221300 AAA
TAFTOL
TAF AMD
KTOL 221308Z 2213/2312 VRB04KT P6SM FEW030
     FM221500 09005KT P6SM SCT035
     FM222300 VRB03KT P6SM FEW045 SCT150
     FM230600 05002KT 3SM BR SCT015 BKN035
     FM231000 06003KT 1/2SM FG OVC002=

USA.gov is the U.S. government's official web portal to all federal, state and local government web resources and services.